createdAt,value
2023-03-06T00:02:03.907Z,1.45
2023-03-06T00:07:26.455Z,1.50
2023-03-06T00:12:48.570Z,2.17
2023-03-06T00:18:10.801Z,2.85
2023-03-06T00:23:33.456Z,1.92
2023-03-06T00:28:55.473Z,1.48
2023-03-06T00:34:17.551Z,1.70
2023-03-06T00:39:41.605Z,1.30
2023-03-06T00:45:04.523Z,2.05
2023-03-06T00:50:26.772Z,1.30
2023-03-06T00:55:51.263Z,1.40
2023-03-06T01:01:13.318Z,1.60
2023-03-06T01:06:36.603Z,1.40
2023-03-06T01:11:58.431Z,1.30
2023-03-06T01:17:20.516Z,1.20
2023-03-06T01:22:42.586Z,1.70
2023-03-06T01:28:04.593Z,1.73
2023-03-06T01:33:26.605Z,1.95
2023-03-06T01:38:48.597Z,2.08
2023-03-06T01:44:14.201Z,1.50
2023-03-06T01:49:41.032Z,1.20
2023-03-06T01:55:08.192Z,1.88
2023-03-06T02:00:31.573Z,1.40
2023-03-06T02:05:54.793Z,1.30
2023-03-06T02:11:23.935Z,1.73
2023-03-06T02:16:45.866Z,1.40
2023-03-06T02:22:07.730Z,1.40
2023-03-06T02:27:30.404Z,1.27
2023-03-06T02:32:52.429Z,1.30
2023-03-06T02:38:20.510Z,1.30
2023-03-06T02:43:47.290Z,1.57
2023-03-06T02:49:11.663Z,1.50
2023-03-06T02:54:33.852Z,1.40
2023-03-06T02:59:55.854Z,2.15
2023-03-06T03:05:18.018Z,1.30
2023-03-06T03:10:44.569Z,1.95
2023-03-06T03:16:11.909Z,1.30
2023-03-06T03:21:34.018Z,1.38
2023-03-06T03:26:56.751Z,2.50
2023-03-06T03:32:19.925Z,1.50
2023-03-06T03:37:42.317Z,1.73
2023-03-06T03:43:04.412Z,1.30
2023-03-06T03:48:26.592Z,2.72
2023-03-06T03:53:49.855Z,3.88
2023-03-06T03:59:16.267Z,1.85
2023-03-06T04:04:50.141Z,2.72
2023-03-06T04:10:13.957Z,1.50
2023-03-06T04:15:37.109Z,1.73
2023-03-06T04:20:59.485Z,1.30
2023-03-06T04:26:22.914Z,2.72
2023-03-06T04:31:45.230Z,1.38
2023-03-06T04:37:09.122Z,1.40
2023-03-06T04:42:32.215Z,1.20
2023-03-06T04:47:55.262Z,1.27
2023-03-06T04:53:20.217Z,4.93
2023-03-06T04:58:44.604Z,9.07
2023-03-06T05:04:07.489Z,7.97
2023-03-06T05:09:35.121Z,10.05
2023-03-06T05:15:09.235Z,7.93
2023-03-06T05:20:31.701Z,5.90
2023-03-06T05:25:53.970Z,8.18
2023-03-06T05:31:15.579Z,6.65
2023-03-06T05:36:37.619Z,6.40
2023-03-06T05:41:59.641Z,6.53
2023-03-06T05:47:21.554Z,6.65
2023-03-06T05:52:43.695Z,6.28
2023-03-06T05:58:05.714Z,6.25
2023-03-06T06:03:27.974Z,6.25
2023-03-06T06:14:57.196Z,6.47
2023-03-06T06:20:19.929Z,5.72
2023-03-06T06:25:42.266Z,2.83
2023-03-06T06:31:12.804Z,6.43
2023-03-06T06:36:35.242Z,6.38
2023-03-06T06:42:20.836Z,9.70
2023-03-06T06:47:43.941Z,7.15
2023-03-06T06:53:06.087Z,7.95
2023-03-06T06:58:28.097Z,6.95
2023-03-06T07:03:50.140Z,2.08
2023-03-06T07:09:13.173Z,4.85
2023-03-06T07:14:36.663Z,7.35
2023-03-06T07:20:00.150Z,4.78
2023-03-06T07:25:22.961Z,4.85
2023-03-06T07:30:47.831Z,6.32
2023-03-06T07:36:12.898Z,5.03
2023-03-06T07:41:36.349Z,5.53
2023-03-06T07:46:58.792Z,4.82
2023-03-06T07:52:21.026Z,5.13
2023-03-06T07:57:43.378Z,3.95
2023-03-06T08:03:12.725Z,1.48
2023-03-06T08:08:36.039Z,6.18
2023-03-06T08:14:02.034Z,3.88
2023-03-06T08:19:26.083Z,5.07
2023-03-06T08:24:48.100Z,4.32
2023-03-06T08:30:11.068Z,3.55
2023-03-06T08:35:33.204Z,4.82
2023-03-06T08:40:55.153Z,3.88
2023-03-06T08:46:19.312Z,6.50
2023-03-06T08:51:44.052Z,5.15
2023-03-06T08:57:10.862Z,3.70
2023-03-06T09:02:33.542Z,7.15
2023-03-06T09:07:55.820Z,2.22
2023-03-06T09:13:18.630Z,1.02
2023-03-06T09:18:40.952Z,1.42
2023-03-06T09:24:02.948Z,1.73
2023-03-06T09:29:25.407Z,1.42
2023-03-06T09:34:47.674Z,2.10
2023-03-06T09:40:20.405Z,1.67
2023-03-06T09:45:42.654Z,1.13
2023-03-06T09:51:17.318Z,2.85
2023-03-06T09:56:40.143Z,2.95
2023-03-06T10:02:34.560Z,1.23
2023-03-06T10:08:02.826Z,2.47
2023-03-06T10:13:34.038Z,1.10
2023-03-06T10:19:02.021Z,1.20
2023-03-06T10:24:44.703Z,1.30
2023-03-06T10:30:46.632Z,1.63
2023-03-06T10:36:30.645Z,1.48
2023-03-06T10:41:56.770Z,1.60
2023-03-06T10:47:35.764Z,0.80
2023-03-06T10:53:05.660Z,2.58
2023-03-06T10:58:33.059Z,1.02
2023-03-06T11:04:00.133Z,1.10
2023-03-06T11:09:26.101Z,1.08
2023-03-06T11:14:48.329Z,0.80
2023-03-06T11:20:52.353Z,1.70
2023-03-06T11:26:18.177Z,1.27
2023-03-06T11:31:57.675Z,1.27
2023-03-06T11:37:46.388Z,1.75
2023-03-06T11:43:32.006Z,1.15
2023-03-06T11:49:22.611Z,0.80
2023-03-06T11:54:54.431Z,1.60
2023-03-06T12:00:19.802Z,2.42
2023-03-06T12:05:50.814Z,1.50
2023-03-06T12:11:23.672Z,0.98
2023-03-06T12:16:51.786Z,1.33
2023-03-06T12:22:31.288Z,0.90
2023-03-06T12:28:05.096Z,1.20
2023-03-06T12:33:46.784Z,0.90
2023-03-06T12:39:25.182Z,0.90
2023-03-06T12:45:13.342Z,1.65
2023-03-06T12:50:39.081Z,0.90
2023-03-06T12:56:05.563Z,0.80
2023-03-06T13:01:42.126Z,1.13
2023-03-06T13:07:41.798Z,1.15
2023-03-06T13:13:31.397Z,0.90
2023-03-06T13:19:19.292Z,0.88
2023-03-06T13:30:46.147Z,1.15
2023-03-06T13:36:17.599Z,1.02
2023-03-06T13:42:04.469Z,1.95
2023-03-06T13:48:09.597Z,1.73
2023-03-06T13:54:01.574Z,1.42
2023-03-06T14:00:10.937Z,0.93
2023-03-06T14:05:56.289Z,1.45
2023-03-06T14:11:23.336Z,1.00
2023-03-06T14:16:51.618Z,0.90
2023-03-06T14:22:20.241Z,0.93
2023-03-06T14:27:46.149Z,0.90
2023-03-06T14:33:13.285Z,1.27
2023-03-06T14:38:46.074Z,1.20
2023-03-06T14:44:26.822Z,1.00
2023-03-06T14:49:50.858Z,1.00
2023-03-06T14:55:24.207Z,1.20
2023-03-06T15:00:52.034Z,1.10
2023-03-06T15:06:31.579Z,1.50
2023-03-06T15:17:27.512Z,1.52
2023-03-06T15:22:55.148Z,1.00
2023-03-06T15:28:31.140Z,1.00
2023-03-06T15:34:08.550Z,1.10
2023-03-06T15:39:36.828Z,1.10
2023-03-06T15:45:06.197Z,1.10
2023-03-06T15:50:30.884Z,1.20
2023-03-06T15:55:54.876Z,1.10
2023-03-06T16:01:19.631Z,1.23
2023-03-06T16:06:41.803Z,1.25
2023-03-06T16:12:04.988Z,1.48
2023-03-06T16:17:27.202Z,1.52
2023-03-06T16:22:54.379Z,3.15
2023-03-06T16:28:17.367Z,1.27
2023-03-06T16:33:39.370Z,1.10
2023-03-06T16:39:01.309Z,1.30
2023-03-06T16:44:23.529Z,1.20
2023-03-06T16:49:45.663Z,1.10
2023-03-06T16:55:08.324Z,2.22
2023-03-06T17:00:33.590Z,1.10
2023-03-06T17:05:55.779Z,1.10
2023-03-06T17:11:20.739Z,1.52
2023-03-06T17:16:43.696Z,1.13
2023-03-06T17:22:06.174Z,1.10
2023-03-06T17:27:28.965Z,1.35
2023-03-06T17:32:51.810Z,2.13
2023-03-06T17:38:16.601Z,1.40
2023-03-06T17:43:40.080Z,1.10
2023-03-06T17:49:02.162Z,1.30
2023-03-06T17:54:26.779Z,1.10
2023-03-06T17:59:49.329Z,1.55
2023-03-06T18:05:12.964Z,1.20
2023-03-06T18:10:35.791Z,1.70
2023-03-06T18:15:58.200Z,1.20
2023-03-06T18:21:20.449Z,1.20
2023-03-06T18:26:43.180Z,1.35
2023-03-06T18:32:05.820Z,1.38
2023-03-06T18:37:28.261Z,1.63
2023-03-06T18:42:50.483Z,1.20
2023-03-06T18:48:12.753Z,1.95
2023-03-06T18:53:36.502Z,2.20
2023-03-06T18:59:07.172Z,1.65
2023-03-06T19:04:29.471Z,1.83
2023-03-06T19:09:52.064Z,1.70
2023-03-06T19:15:14.374Z,2.33
2023-03-06T19:20:36.741Z,2.80
2023-03-06T19:26:00.298Z,1.88
2023-03-06T19:31:28.443Z,1.50
2023-03-06T19:36:51.432Z,1.48
2023-03-06T19:42:13.966Z,1.92
2023-03-06T19:47:36.561Z,2.25
2023-03-06T19:52:59.802Z,2.40
2023-03-06T19:58:21.784Z,1.23
2023-03-06T20:03:44.801Z,1.30
2023-03-06T20:09:09.623Z,1.25
2023-03-06T20:14:32.454Z,1.38
2023-03-06T20:19:54.683Z,1.55
2023-03-06T20:25:16.752Z,1.50
2023-03-06T20:30:38.658Z,1.75
2023-03-06T20:36:00.981Z,1.90
2023-03-06T20:41:25.807Z,1.30
2023-03-06T20:46:48.256Z,2.60
2023-03-06T20:52:10.312Z,3.60
2023-03-06T20:57:32.701Z,1.50
2023-03-06T21:02:54.500Z,1.40
2023-03-06T21:08:17.106Z,1.75
2023-03-06T21:13:39.004Z,1.90
2023-03-06T21:19:04.062Z,1.20
2023-03-06T21:24:25.961Z,1.38
2023-03-06T21:29:48.095Z,1.30
2023-03-06T21:35:09.837Z,4.43
2023-03-06T21:40:31.729Z,1.95
2023-03-06T21:45:54.826Z,1.83
2023-03-06T21:51:19.629Z,1.30
2023-03-06T21:56:41.236Z,1.75
2023-03-06T22:02:02.903Z,1.88
2023-03-06T22:07:24.968Z,1.58
2023-03-06T22:12:47.566Z,1.35
2023-03-06T22:18:16.274Z,1.38
2023-03-06T22:23:39.434Z,1.95
2023-03-06T22:29:10.945Z,1.38
2023-03-06T22:34:33.457Z,1.98
2023-03-06T22:39:55.784Z,2.75
2023-03-06T22:45:18.011Z,1.55
2023-03-06T22:50:39.937Z,1.65
2023-03-06T22:56:03.746Z,1.25
2023-03-06T23:01:31.129Z,1.27
2023-03-06T23:06:53.175Z,1.80
2023-03-06T23:12:15.633Z,1.40
2023-03-06T23:17:56.091Z,1.40
2023-03-06T23:23:39.875Z,1.33
2023-03-06T23:29:04.932Z,1.15
2023-03-06T23:34:27.388Z,1.33
2023-03-06T23:39:49.752Z,1.60
2023-03-06T23:45:12.345Z,1.20
2023-03-06T23:50:34.574Z,1.30
2023-03-06T23:55:56.841Z,1.30
